createdAt,value
2019-04-27T00:04:40.357Z,2.07
2019-04-27T00:09:50.136Z,1.93
2019-04-27T00:14:48.313Z,1.97
2019-04-27T00:20:07.440Z,2.10
2019-04-27T00:25:13.125Z,2.20
2019-04-27T00:30:16.859Z,2.03
2019-04-27T00:35:20.403Z,2.60
2019-04-27T00:40:29.549Z,2.40
2019-04-27T00:45:31.332Z,3.03
2019-04-27T00:50:35.778Z,2.40
2019-04-27T00:55:39.164Z,2.97
2019-04-27T01:01:00.310Z,2.80
2019-04-27T01:06:04.324Z,2.77
2019-04-27T01:11:06.036Z,2.77
2019-04-27T01:16:08.617Z,2.93
2019-04-27T01:21:13.508Z,2.87
2019-04-27T01:26:33.595Z,2.83
2019-04-27T01:31:35.301Z,2.50
2019-04-27T01:36:36.620Z,2.50
2019-04-27T01:41:39.178Z,2.20
2019-04-27T01:46:42.659Z,2.10
2019-04-27T01:51:44.205Z,1.80
2019-04-27T01:56:47.141Z,2.20
2019-04-27T02:02:06.577Z,2.00
2019-04-27T02:07:14.263Z,2.40
2019-04-27T02:12:15.941Z,3.00
2019-04-27T02:17:18.742Z,2.70
2019-04-27T02:22:26.135Z,2.50
2019-04-27T02:27:29.544Z,3.30
2019-04-27T02:32:39.980Z,3.10
2019-04-27T02:37:41.590Z,3.17
2019-04-27T02:42:46.838Z,3.20
2019-04-27T02:47:49.064Z,2.80
2019-04-27T02:52:53.711Z,2.97
2019-04-27T02:57:59.722Z,2.83
2019-04-27T03:03:05.778Z,3.47
2019-04-27T03:08:12.871Z,2.67
2019-04-27T03:13:22.308Z,3.27
2019-04-27T03:18:32.124Z,3.80
2019-04-27T03:23:31.708Z,3.50
2019-04-27T03:28:33.307Z,3.50
2019-04-27T03:33:34.963Z,3.27
2019-04-27T03:38:36.442Z,3.10
2019-04-27T03:43:40.209Z,3.23
2019-04-27T03:48:44.096Z,3.23
2019-04-27T03:54:10.738Z,3.00
2019-04-27T03:59:22.982Z,3.37
2019-04-27T04:04:26.684Z,3.07
2019-04-27T04:09:30.263Z,3.43
2019-04-27T04:14:31.987Z,3.33
2019-04-27T04:19:47.694Z,4.43
2019-04-27T04:24:39.629Z,4.67
2019-04-27T04:29:43.102Z,4.97
2019-04-27T04:34:44.521Z,4.77
2019-04-27T04:39:52.678Z,4.90
2019-04-27T04:45:00.402Z,5.80
2019-04-27T04:50:11.160Z,5.10
2019-04-27T04:55:14.716Z,6.33
2019-04-27T05:00:16.482Z,6.03
2019-04-27T05:05:19.353Z,6.57
2019-04-27T05:10:23.109Z,5.93
2019-04-27T05:15:24.548Z,6.83
2019-04-27T05:20:29.488Z,7.50
2019-04-27T05:25:31.236Z,7.43
2019-04-27T05:30:35.757Z,7.23
2019-04-27T05:35:38.761Z,6.73
2019-04-27T05:40:41.558Z,5.57
2019-04-27T05:46:29.765Z,5.20
2019-04-27T05:51:36.921Z,5.60
2019-04-27T05:56:39.005Z,6.60
2019-04-27T06:01:40.815Z,5.43
2019-04-27T06:06:43.175Z,4.30
2019-04-27T06:11:44.481Z,3.97
2019-04-27T06:16:47.045Z,3.93
2019-04-27T06:21:50.063Z,2.50
2019-04-27T06:26:51.573Z,3.10
2019-04-27T06:31:53.008Z,3.80
2019-04-27T06:36:54.477Z,3.60
2019-04-27T06:41:55.940Z,3.20
2019-04-27T06:46:59.018Z,3.10
2019-04-27T06:52:00.743Z,3.40
2019-04-27T06:57:03.239Z,3.47
2019-04-27T07:02:04.713Z,2.80
2019-04-27T07:07:07.326Z,2.60
2019-04-27T07:12:10.544Z,2.07
2019-04-27T07:17:12.202Z,2.00
2019-04-27T07:22:15.975Z,4.03
2019-04-27T07:27:21.284Z,2.83
2019-04-27T07:32:23.698Z,2.93
2019-04-27T07:37:29.407Z,2.63
2019-04-27T07:42:32.262Z,2.87
2019-04-27T07:47:33.840Z,2.60
2019-04-27T07:52:38.027Z,2.60
2019-04-27T07:57:40.793Z,2.47
2019-04-27T08:02:45.436Z,2.70
2019-04-27T08:07:52.587Z,3.20
2019-04-27T08:12:54.010Z,3.63
2019-04-27T08:17:59.191Z,2.33
2019-04-27T08:23:02.931Z,3.27
2019-04-27T08:28:21.352Z,1.93
2019-04-27T08:33:22.713Z,2.10
2019-04-27T08:38:24.040Z,2.37
2019-04-27T08:43:34.329Z,2.30
2019-04-27T08:48:37.039Z,2.87
2019-04-27T08:53:39.796Z,2.90
2019-04-27T08:58:42.365Z,3.23
2019-04-27T09:03:46.905Z,2.30
2019-04-27T09:08:56.160Z,2.03
2019-04-27T09:14:03.255Z,1.97
2019-04-27T09:19:12.299Z,2.80
2019-04-27T09:24:13.600Z,1.80
2019-04-27T09:29:15.156Z,1.63
2019-04-27T09:34:16.893Z,2.30
2019-04-27T09:39:18.436Z,2.10
2019-04-27T09:44:19.980Z,2.27
2019-04-27T09:49:27.083Z,2.50
2019-04-27T09:54:28.392Z,2.90
2019-04-27T09:59:32.907Z,2.20
2019-04-27T10:04:35.582Z,2.00
2019-04-27T10:09:39.243Z,2.13
2019-04-27T10:14:40.715Z,1.70
2019-04-27T10:19:42.184Z,1.60
2019-04-27T10:24:43.538Z,1.80
2019-04-27T10:29:46.757Z,2.37
2019-04-27T10:34:48.440Z,2.07
2019-04-27T10:39:49.917Z,4.47
2019-04-27T10:44:51.236Z,1.90
2019-04-27T10:49:53.827Z,2.00
2019-04-27T10:54:55.630Z,1.30
2019-04-27T11:00:08.664Z,0.90
2019-04-27T11:05:15.222Z,1.37
2019-04-27T11:10:19.433Z,1.53
2019-04-27T11:15:21.910Z,1.70
2019-04-27T11:20:27.549Z,1.20
2019-04-27T11:25:29.913Z,1.60
2019-04-27T11:30:31.672Z,1.30
2019-04-27T11:35:43.825Z,1.60
2019-04-27T11:40:46.666Z,1.93
2019-04-27T11:45:48.464Z,1.87
2019-04-27T11:50:49.841Z,2.80
2019-04-27T11:55:51.373Z,2.00
2019-04-27T12:00:52.776Z,2.20
2019-04-27T12:05:58.057Z,2.10
2019-04-27T12:10:57.895Z,2.67
2019-04-27T12:15:59.368Z,1.00
2019-04-27T12:21:00.922Z,1.20
2019-04-27T12:26:02.909Z,1.53
2019-04-27T12:31:08.737Z,1.97
2019-04-27T12:36:10.083Z,2.40
2019-04-27T12:41:11.755Z,2.37
2019-04-27T12:46:16.011Z,2.37
2019-04-27T12:51:21.081Z,2.30
2019-04-27T12:56:41.416Z,2.33
2019-04-27T13:01:43.075Z,2.80
2019-04-27T13:06:47.094Z,2.53
2019-04-27T13:11:49.673Z,2.50
2019-04-27T13:16:51.146Z,2.80
2019-04-27T13:21:52.800Z,3.57
2019-04-27T13:26:55.950Z,2.50
2019-04-27T13:31:58.369Z,3.47
2019-04-27T13:37:01.730Z,2.20
2019-04-27T13:42:09.261Z,3.27
2019-04-27T13:47:18.608Z,2.97
2019-04-27T13:52:23.536Z,2.60
2019-04-27T13:57:26.583Z,1.93
2019-04-27T14:02:32.326Z,2.30
2019-04-27T14:07:35.666Z,2.23
2019-04-27T14:12:38.596Z,1.70
2019-04-27T14:17:40.441Z,2.93
2019-04-27T14:22:42.855Z,2.37
2019-04-27T14:27:44.326Z,2.33
2019-04-27T14:32:45.825Z,2.13
2019-04-27T14:37:48.403Z,2.00
2019-04-27T14:42:53.378Z,2.03
2019-04-27T14:47:53.885Z,3.23
2019-04-27T14:52:55.378Z,2.90
2019-04-27T14:57:58.546Z,2.67
2019-04-27T15:03:00.161Z,3.37
2019-04-27T15:08:05.529Z,2.33
2019-04-27T15:13:06.538Z,2.53
2019-04-27T15:18:11.624Z,1.80
2019-04-27T15:23:14.226Z,2.33
2019-04-27T15:28:17.723Z,3.00
2019-04-27T15:33:38.890Z,3.00
2019-04-27T15:38:53.666Z,2.50
2019-04-27T15:44:05.683Z,3.27
2019-04-27T15:49:09.759Z,2.70
2019-04-27T15:54:08.464Z,1.60
2019-04-27T15:59:15.715Z,2.80
2019-04-27T16:04:19.067Z,3.03
2019-04-27T16:09:25.526Z,2.97
2019-04-27T16:14:25.800Z,3.40
2019-04-27T16:19:28.709Z,3.17
2019-04-27T16:24:31.319Z,6.50
2019-04-27T16:29:33.876Z,3.50
2019-04-27T16:34:39.598Z,2.97
2019-04-27T16:39:45.689Z,3.40
2019-04-27T16:44:49.461Z,2.90
2019-04-27T16:49:49.783Z,2.43
2019-04-27T16:54:57.741Z,3.33
2019-04-27T17:00:00.903Z,2.13
2019-04-27T17:05:01.811Z,2.33
2019-04-27T17:10:04.989Z,2.13
2019-04-27T17:15:26.370Z,3.00
2019-04-27T17:20:29.914Z,2.70
2019-04-27T17:25:39.064Z,2.63
2019-04-27T17:30:39.812Z,2.30
2019-04-27T17:35:42.704Z,2.30
2019-04-27T17:40:43.476Z,3.67
2019-04-27T17:45:45.176Z,2.60
2019-04-27T17:50:46.808Z,2.53
2019-04-27T17:55:54.964Z,3.63
2019-04-27T18:00:55.271Z,2.00
2019-04-27T18:05:58.210Z,2.50
2019-04-27T18:11:03.021Z,2.93
2019-04-27T18:16:03.110Z,3.53
2019-04-27T18:21:04.612Z,2.33
2019-04-27T18:26:17.628Z,2.57
2019-04-27T18:31:22.217Z,2.80
2019-04-27T18:36:23.686Z,2.20
2019-04-27T18:41:25.807Z,2.23
2019-04-27T18:46:33.147Z,2.47
2019-04-27T18:51:40.476Z,2.60
2019-04-27T18:56:43.867Z,2.83
2019-04-27T19:01:48.961Z,2.10
2019-04-27T19:06:50.858Z,2.83
2019-04-27T19:11:55.986Z,2.53
2019-04-27T19:16:55.572Z,2.97
2019-04-27T19:21:58.888Z,3.00
2019-04-27T19:27:17.620Z,2.90
2019-04-27T19:32:11.840Z,2.60
2019-04-27T19:37:13.227Z,3.50
2019-04-27T19:42:20.264Z,2.70
2019-04-27T19:47:34.280Z,2.70
2019-04-27T19:52:38.990Z,3.63
2019-04-27T19:57:42.030Z,3.40
2019-04-27T20:02:47.923Z,3.40
2019-04-27T20:07:51.027Z,2.93
2019-04-27T20:12:53.637Z,3.10
2019-04-27T20:17:55.182Z,3.87
2019-04-27T20:23:33.281Z,2.97
2019-04-27T20:28:34.704Z,4.27
2019-04-27T20:33:42.087Z,3.23
2019-04-27T20:38:50.829Z,2.70
2019-04-27T20:43:58.679Z,3.07
2019-04-27T20:49:25.170Z,2.90
2019-04-27T20:54:30.617Z,3.73
2019-04-27T20:59:36.642Z,3.37
2019-04-27T21:05:10.656Z,4.28
2019-04-27T21:10:13.167Z,4.00
2019-04-27T21:15:18.652Z,3.43
2019-04-27T21:20:45.021Z,2.93
2019-04-27T21:25:58.302Z,3.40
2019-04-27T21:31:08.768Z,2.60
2019-04-27T21:36:14.123Z,3.30
2019-04-27T21:41:15.425Z,3.37
2019-04-27T21:46:16.803Z,3.23
2019-04-27T21:51:24.084Z,3.00
2019-04-27T21:56:31.252Z,3.17
2019-04-27T22:01:48.727Z,3.00
2019-04-27T22:07:21.604Z,3.20
2019-04-27T22:12:25.270Z,3.00
2019-04-27T22:17:26.589Z,3.63
2019-04-27T22:22:54.555Z,2.93
2019-04-27T22:28:07.135Z,3.33
2019-04-27T22:33:11.724Z,3.40
2019-04-27T22:38:18.373Z,3.73
2019-04-27T22:43:31.568Z,3.23
2019-04-27T22:48:37.270Z,2.70
2019-04-27T22:54:03.698Z,3.27
2019-04-27T22:59:16.871Z,3.03
2019-04-27T23:04:35.549Z,2.40
2019-04-27T23:09:36.836Z,3.37
2019-04-27T23:14:38.494Z,3.17
2019-04-27T23:19:50.918Z,2.93
2019-04-27T23:25:07.100Z,2.83
2019-04-27T23:30:12.486Z,2.50
2019-04-27T23:35:28.272Z,3.07
2019-04-27T23:40:29.580Z,2.53
2019-04-27T23:45:34.214Z,2.93
2019-04-27T23:50:49.528Z,3.43
2019-04-27T23:56:00.772Z,2.33
